createdAt,value
2016-12-10T00:00:15.427Z,5
2016-12-10T00:00:34.051Z,5
2016-12-10T00:00:52.681Z,5
2016-12-10T00:01:11.301Z,5
2016-12-10T00:01:29.942Z,5
2016-12-10T00:01:48.598Z,5
2016-12-10T00:02:07.220Z,5
2016-12-10T00:02:25.869Z,5
2016-12-10T00:02:44.497Z,5
2016-12-10T00:03:03.124Z,5
2016-12-10T00:03:21.766Z,5
2016-12-10T00:03:40.399Z,5
2016-12-10T00:03:59.029Z,5
2016-12-10T00:04:17.649Z,5
2016-12-10T00:04:36.273Z,5
2016-12-10T00:04:54.901Z,5
2016-12-10T00:05:13.559Z,5
2016-12-10T00:05:32.183Z,5
2016-12-10T00:05:50.806Z,5
2016-12-10T00:06:09.428Z,5
2016-12-10T00:06:28.061Z,5
2016-12-10T00:06:46.687Z,5
2016-12-10T00:07:05.311Z,5
2016-12-10T00:07:23.941Z,5
2016-12-10T00:07:42.564Z,5
2016-12-10T00:08:01.192Z,5
2016-12-10T00:08:19.820Z,5
2016-12-10T00:08:38.492Z,5
2016-12-10T00:08:57.114Z,5
2016-12-10T00:09:15.735Z,5.1
2016-12-10T00:09:34.367Z,5.1
2016-12-10T00:09:53.011Z,5.1
2016-12-10T00:10:11.642Z,5.1
2016-12-10T00:10:30.269Z,5.1
2016-12-10T00:10:48.893Z,5.1
2016-12-10T00:11:07.513Z,5.1
2016-12-10T00:11:26.138Z,5.1
2016-12-10T00:11:44.774Z,5.1
2016-12-10T00:12:03.413Z,5.1
2016-12-10T00:12:22.043Z,5.1
2016-12-10T00:12:40.668Z,5.1
2016-12-10T00:12:59.307Z,5.2
2016-12-10T00:13:17.933Z,5.1
2016-12-10T00:13:36.554Z,5.1
2016-12-10T00:13:55.203Z,5.1
2016-12-10T00:14:13.826Z,5.1
2016-12-10T00:14:32.446Z,5.1
2016-12-10T00:14:51.077Z,5.1
2016-12-10T00:15:09.710Z,5.1
2016-12-10T00:15:28.346Z,5.1
2016-12-10T00:15:47.008Z,5.1
2016-12-10T00:16:05.628Z,5
2016-12-10T00:16:24.248Z,5
2016-12-10T00:16:42.871Z,4.9
2016-12-10T00:17:01.494Z,4.9
2016-12-10T00:17:20.116Z,4.9
2016-12-10T00:17:38.746Z,4.9
2016-12-10T00:17:57.365Z,5
2016-12-10T00:18:15.994Z,5
2016-12-10T00:18:34.619Z,5
2016-12-10T00:18:53.243Z,5
2016-12-10T00:19:11.906Z,5
2016-12-10T00:19:30.544Z,5.1
2016-12-10T00:19:49.170Z,5.1
2016-12-10T00:20:07.801Z,5.1
2016-12-10T00:20:26.423Z,5.1
2016-12-10T00:20:45.048Z,5.1
2016-12-10T00:21:03.691Z,5.1
2016-12-10T00:21:22.310Z,5.1
2016-12-10T00:21:40.933Z,5
2016-12-10T00:21:59.566Z,5
2016-12-10T00:22:18.199Z,5
2016-12-10T00:22:36.827Z,5
2016-12-10T00:22:55.452Z,5.1
2016-12-10T00:23:14.070Z,5.1
2016-12-10T00:23:32.692Z,5.1
2016-12-10T00:23:51.327Z,5.1
2016-12-10T00:24:09.958Z,5.1
2016-12-10T00:24:28.645Z,5
2016-12-10T00:24:47.273Z,5
2016-12-10T00:25:05.909Z,5
2016-12-10T00:25:24.532Z,5
2016-12-10T00:25:43.157Z,5
2016-12-10T00:26:01.784Z,5.1
2016-12-10T00:26:20.411Z,5.1
2016-12-10T00:26:39.037Z,5.1
2016-12-10T00:26:57.669Z,5.1
2016-12-10T00:27:16.291Z,5.2
2016-12-10T00:27:34.922Z,5.2
2016-12-10T00:27:53.580Z,5.2
2016-12-10T00:28:12.205Z,5.2
2016-12-10T00:28:30.832Z,5.1
2016-12-10T00:28:49.459Z,5.1
2016-12-10T00:29:08.085Z,5.1
2016-12-10T00:29:26.713Z,5.1
2016-12-10T00:29:45.343Z,5.1
2016-12-10T00:30:03.965Z,5.1
2016-12-10T00:30:22.591Z,5.1
2016-12-10T00:30:41.219Z,5
2016-12-10T00:30:59.847Z,5
2016-12-10T00:31:18.503Z,5
2016-12-10T00:31:37.126Z,5
2016-12-10T00:31:55.750Z,5
2016-12-10T00:32:14.383Z,5
2016-12-10T00:32:33.008Z,4.9
2016-12-10T00:32:51.647Z,4.9
2016-12-10T00:33:10.276Z,4.9
2016-12-10T00:33:28.902Z,4.9
2016-12-10T00:33:47.521Z,4.9
2016-12-10T00:34:06.142Z,4.8
2016-12-10T00:34:24.764Z,4.8
2016-12-10T00:34:43.411Z,4.8
2016-12-10T00:35:02.050Z,4.8
2016-12-10T00:35:20.677Z,4.9
2016-12-10T00:35:39.301Z,4.9
2016-12-10T00:35:57.926Z,4.9
2016-12-10T00:36:16.547Z,4.9
2016-12-10T00:36:35.169Z,4.8
2016-12-10T00:36:53.799Z,4.8
2016-12-10T00:37:12.427Z,4.8
2016-12-10T00:37:31.054Z,4.9
2016-12-10T00:37:49.679Z,4.9
2016-12-10T00:38:08.317Z,4.8
2016-12-10T00:38:26.954Z,4.9
2016-12-10T00:38:45.578Z,4.9
2016-12-10T00:39:04.197Z,4.9
2016-12-10T00:39:22.825Z,4.9
2016-12-10T00:39:41.448Z,4.9
2016-12-10T00:40:00.077Z,4.8
2016-12-10T00:40:18.714Z,4.8
2016-12-10T00:40:37.333Z,4.9
2016-12-10T00:40:55.954Z,4.9
2016-12-10T00:41:14.578Z,4.9
2016-12-10T00:41:33.205Z,4.9
2016-12-10T00:41:51.862Z,4.8
2016-12-10T00:42:10.491Z,4.8
2016-12-10T00:42:29.112Z,4.8
2016-12-10T00:42:47.735Z,4.8
2016-12-10T00:43:06.356Z,4.8
2016-12-10T00:43:24.985Z,4.8
2016-12-10T00:43:43.623Z,4.8
2016-12-10T00:44:02.248Z,4.8
2016-12-10T00:44:20.885Z,4.8
2016-12-10T00:44:39.510Z,4.8
2016-12-10T00:44:58.131Z,4.8
2016-12-10T00:45:16.771Z,4.9
2016-12-10T00:45:35.414Z,4.9
2016-12-10T00:45:54.034Z,4.9
2016-12-10T00:46:12.659Z,4.9
2016-12-10T00:46:31.285Z,4.9
2016-12-10T00:46:49.917Z,4.9
2016-12-10T00:47:08.579Z,5
2016-12-10T00:47:27.199Z,5
2016-12-10T00:47:45.829Z,5
2016-12-10T00:48:04.459Z,5
2016-12-10T00:48:23.083Z,5
2016-12-10T00:48:41.709Z,5
2016-12-10T00:49:00.335Z,5
2016-12-10T00:49:18.968Z,5
2016-12-10T00:49:37.593Z,5
2016-12-10T00:49:56.220Z,5
2016-12-10T00:50:14.852Z,5.1
2016-12-10T00:50:33.499Z,5.1
2016-12-10T00:50:52.144Z,5.1
2016-12-10T00:51:10.768Z,5.1
2016-12-10T00:51:29.400Z,5.1
2016-12-10T00:51:48.029Z,5.1
2016-12-10T00:52:06.660Z,5.1
2016-12-10T00:52:25.281Z,5
2016-12-10T00:52:43.910Z,5
2016-12-10T00:53:02.533Z,5
2016-12-10T00:53:21.162Z,5
2016-12-10T00:53:39.785Z,5
2016-12-10T00:53:58.432Z,5
2016-12-10T00:54:17.064Z,5
2016-12-10T00:54:35.690Z,5
2016-12-10T00:54:54.320Z,5
2016-12-10T00:55:12.942Z,5
2016-12-10T00:55:31.577Z,5.1
2016-12-10T00:55:50.197Z,5.1
2016-12-10T00:56:08.851Z,5.1
2016-12-10T00:56:27.473Z,5.1
2016-12-10T00:56:46.098Z,5.1
2016-12-10T00:57:04.726Z,5.1
2016-12-10T00:57:23.383Z,5.2
2016-12-10T00:57:42.005Z,5.1
2016-12-10T00:58:00.637Z,5.1
2016-12-10T00:58:19.266Z,5.1
2016-12-10T00:58:37.894Z,5.2
2016-12-10T00:58:56.527Z,5.1
2016-12-10T00:59:15.146Z,5.2
2016-12-10T00:59:33.766Z,5.2
2016-12-10T00:59:52.394Z,5.2
2016-12-10T01:00:11.020Z,5.2
2016-12-10T01:00:29.651Z,5.2
2016-12-10T01:00:48.300Z,5.1
2016-12-10T01:01:06.925Z,5.1
2016-12-10T01:01:25.570Z,5.1
2016-12-10T01:01:44.202Z,5.1
2016-12-10T01:02:02.825Z,5.1
2016-12-10T01:02:21.447Z,5.1
2016-12-10T01:02:40.067Z,5.1
2016-12-10T01:02:58.687Z,5.1
2016-12-10T01:03:17.315Z,5.1
2016-12-10T01:03:35.943Z,5.1
2016-12-10T01:03:54.567Z,5.1
2016-12-10T01:04:13.203Z,5.1
2016-12-10T01:04:31.832Z,5.1
2016-12-10T01:04:50.457Z,5.1
2016-12-10T01:05:09.084Z,5.1
2016-12-10T01:05:27.707Z,5.1
2016-12-10T01:05:46.337Z,5.1
2016-12-10T01:06:04.956Z,5.1
2016-12-10T01:06:23.592Z,5.1
2016-12-10T01:06:42.237Z,5.1
2016-12-10T01:07:00.860Z,5.1
2016-12-10T01:07:19.493Z,5.1
2016-12-10T01:07:38.127Z,5.1
2016-12-10T01:07:56.781Z,5.1
2016-12-10T01:08:15.406Z,5.1
2016-12-10T01:08:34.031Z,5.1
2016-12-10T01:08:52.653Z,5.1
2016-12-10T01:09:11.279Z,5.1
2016-12-10T01:09:29.900Z,5.1
2016-12-10T01:09:48.525Z,5.2
2016-12-10T01:10:07.150Z,5.2
2016-12-10T01:10:25.777Z,5.2
2016-12-10T01:10:44.428Z,5.3
2016-12-10T01:11:03.052Z,5.3
2016-12-10T01:11:21.702Z,5.3
2016-12-10T01:11:40.326Z,5.3
2016-12-10T01:11:58.962Z,5.3
2016-12-10T01:12:17.589Z,5.4
2016-12-10T01:12:36.212Z,5.4
2016-12-10T01:12:54.837Z,5.4
2016-12-10T01:13:13.475Z,5.4
2016-12-10T01:13:32.105Z,5.4
2016-12-10T01:13:50.734Z,5.4
2016-12-10T01:14:09.361Z,5.4
2016-12-10T01:14:27.990Z,5.5
2016-12-10T01:14:46.625Z,5.5
2016-12-10T01:15:05.250Z,5.5
2016-12-10T01:15:23.877Z,5.5
2016-12-10T01:15:42.502Z,5.5
2016-12-10T01:16:01.127Z,5.5
2016-12-10T01:16:19.752Z,5.5
2016-12-10T01:16:38.410Z,5.5
2016-12-10T01:16:57.031Z,5.5
2016-12-10T01:17:15.677Z,5.5
2016-12-10T01:17:34.299Z,5.5
2016-12-10T01:17:52.925Z,5.5
2016-12-10T01:18:11.555Z,5.5
2016-12-10T01:18:30.185Z,5.5
2016-12-10T01:18:48.809Z,5.5
2016-12-10T01:19:07.437Z,5.6
2016-12-10T01:19:26.059Z,5.6
2016-12-10T01:19:44.685Z,5.6
2016-12-10T01:20:03.335Z,5.6
2016-12-10T01:20:21.953Z,5.6
2016-12-10T01:20:40.582Z,5.6
2016-12-10T01:20:59.208Z,5.6
2016-12-10T01:21:17.831Z,5.6
2016-12-10T01:21:36.460Z,5.6
2016-12-10T01:21:55.081Z,5.6
2016-12-10T01:22:13.705Z,5.6
2016-12-10T01:22:32.351Z,5.6
2016-12-10T01:22:50.974Z,5.6
2016-12-10T01:23:09.599Z,5.6
2016-12-10T01:23:28.249Z,5.6
2016-12-10T01:23:46.884Z,5.6
2016-12-10T01:24:05.510Z,5.6
2016-12-10T01:24:24.133Z,5.6
2016-12-10T01:24:42.757Z,5.6
2016-12-10T01:25:01.385Z,5.6
2016-12-10T01:25:20.011Z,5.6
2016-12-10T01:25:38.638Z,5.6
2016-12-10T01:25:57.287Z,5.6
2016-12-10T01:26:15.909Z,5.6
2016-12-10T01:26:34.533Z,5.5
2016-12-10T01:26:53.183Z,5.5
2016-12-10T01:27:11.805Z,5.5
2016-12-10T01:27:30.432Z,5.6
2016-12-10T01:27:49.061Z,5.6
2016-12-10T01:28:07.687Z,5.6
2016-12-10T01:28:26.318Z,5.6
2016-12-10T01:28:44.940Z,5.6
2016-12-10T01:29:03.561Z,5.6
2016-12-10T01:29:22.188Z,5.6
2016-12-10T01:29:40.809Z,5.6
2016-12-10T01:29:59.444Z,5.6
2016-12-10T01:30:18.081Z,5.5
2016-12-10T01:30:36.717Z,5.5
2016-12-10T01:30:55.339Z,5.5
2016-12-10T01:31:13.963Z,5.5
2016-12-10T01:31:32.587Z,5.5
2016-12-10T01:31:51.210Z,5.5
2016-12-10T01:32:09.841Z,5.5
2016-12-10T01:32:28.460Z,5.5
2016-12-10T01:32:47.082Z,5.5
2016-12-10T01:33:05.730Z,5.5
2016-12-10T01:33:24.352Z,5.5
2016-12-10T01:33:42.977Z,5.5
2016-12-10T01:34:01.625Z,5.6
2016-12-10T01:34:20.248Z,5.6
2016-12-10T01:34:38.869Z,5.6
2016-12-10T01:34:57.494Z,5.6
2016-12-10T01:35:16.118Z,5.6
2016-12-10T01:35:34.749Z,5.6
2016-12-10T01:35:53.384Z,5.6
2016-12-10T01:36:12.012Z,5.7
2016-12-10T01:36:30.645Z,5.7
2016-12-10T01:36:49.273Z,5.7
2016-12-10T01:37:07.895Z,5.7
2016-12-10T01:37:26.518Z,5.7
2016-12-10T01:37:45.140Z,5.7
2016-12-10T01:38:03.766Z,5.7
2016-12-10T01:38:22.408Z,5.7
2016-12-10T01:38:41.032Z,5.7
2016-12-10T01:38:59.656Z,5.8
2016-12-10T01:39:18.304Z,5.8
2016-12-10T01:39:36.927Z,5.8
2016-12-10T01:39:55.559Z,5.8
2016-12-10T01:40:14.189Z,5.8
2016-12-10T01:40:32.814Z,5.8
2016-12-10T01:40:51.439Z,5.8
2016-12-10T01:41:10.089Z,5.8
2016-12-10T01:41:28.722Z,5.8
2016-12-10T01:41:47.352Z,5.9
2016-12-10T01:42:05.979Z,5.9
2016-12-10T01:42:24.603Z,5.9
2016-12-10T01:42:43.257Z,5.9
2016-12-10T01:43:01.878Z,5.9
2016-12-10T01:43:20.507Z,5.9
2016-12-10T01:43:39.154Z,5.9
2016-12-10T01:43:57.779Z,5.9
2016-12-10T01:44:16.406Z,5.9
2016-12-10T01:44:35.029Z,5.9
2016-12-10T01:44:53.654Z,5.9
2016-12-10T01:45:12.281Z,5.9
2016-12-10T01:45:30.908Z,5.9
2016-12-10T01:45:49.532Z,5.9
2016-12-10T01:46:08.193Z,5.9
2016-12-10T01:46:26.811Z,5.9
2016-12-10T01:46:45.437Z,5.9
2016-12-10T01:47:04.065Z,5.9
2016-12-10T01:47:22.698Z,5.9
2016-12-10T01:47:41.327Z,5.9
2016-12-10T01:47:59.948Z,5.9
2016-12-10T01:48:18.569Z,5.9
2016-12-10T01:48:37.199Z,5.9
2016-12-10T01:48:55.854Z,5.9
2016-12-10T01:49:14.478Z,5.9
2016-12-10T01:49:33.123Z,6
2016-12-10T01:49:51.743Z,6
2016-12-10T01:50:10.373Z,6
2016-12-10T01:50:29.001Z,6
2016-12-10T01:50:47.623Z,6
2016-12-10T01:51:06.245Z,6
2016-12-10T01:51:24.866Z,6
2016-12-10T01:51:43.490Z,6
2016-12-10T01:52:02.114Z,6
2016-12-10T01:52:20.739Z,6
2016-12-10T01:52:39.368Z,6
2016-12-10T01:52:58.001Z,5.9
2016-12-10T01:53:16.631Z,5.9
2016-12-10T01:53:35.260Z,5.9
2016-12-10T01:53:53.891Z,5.9
2016-12-10T01:54:12.545Z,5.8
2016-12-10T01:54:31.164Z,5.8
2016-12-10T01:54:49.786Z,5.8
2016-12-10T01:55:08.417Z,5.8
2016-12-10T01:55:27.038Z,5.7
2016-12-10T01:55:45.662Z,5.7
2016-12-10T01:56:04.293Z,5.7
2016-12-10T01:56:22.931Z,5.7
2016-12-10T01:56:41.596Z,5.7
2016-12-10T01:57:00.220Z,5.7
2016-12-10T01:57:18.842Z,5.7
2016-12-10T01:57:37.472Z,5.7
2016-12-10T01:57:56.100Z,5.7
2016-12-10T01:58:14.721Z,5.8
2016-12-10T01:58:33.349Z,5.7
2016-12-10T01:58:51.971Z,5.7
2016-12-10T01:59:10.597Z,5.7
2016-12-10T01:59:29.249Z,5.7
2016-12-10T01:59:47.871Z,5.7
2016-12-10T02:00:06.543Z,5.7
2016-12-10T02:00:25.174Z,5.7
2016-12-10T02:00:43.802Z,5.6
2016-12-10T02:01:02.425Z,5.6
2016-12-10T02:01:21.046Z,5.6
2016-12-10T02:01:39.674Z,5.6
2016-12-10T02:01:58.309Z,5.6
2016-12-10T02:02:16.941Z,5.5
2016-12-10T02:02:35.569Z,5.5
2016-12-10T02:02:54.188Z,5.5
2016-12-10T02:03:12.809Z,5.4
2016-12-10T02:03:31.453Z,5.4
2016-12-10T02:03:50.078Z,5.4
2016-12-10T02:04:08.706Z,5.5
2016-12-10T02:04:27.336Z,5.5
2016-12-10T02:04:45.972Z,5.5
2016-12-10T02:05:04.595Z,5.6
2016-12-10T02:05:23.253Z,5.6
2016-12-10T02:05:41.881Z,5.6
2016-12-10T02:06:00.509Z,5.6
2016-12-10T02:06:19.135Z,5.6
2016-12-10T02:06:37.752Z,5.6
2016-12-10T02:06:56.370Z,5.6
2016-12-10T02:07:15.000Z,5.6
2016-12-10T02:07:33.629Z,5.5
2016-12-10T02:07:52.254Z,5.5
2016-12-10T02:08:10.881Z,5.5
2016-12-10T02:08:29.501Z,5.5
2016-12-10T02:08:48.152Z,5.5
2016-12-10T02:09:06.781Z,5.5
2016-12-10T02:09:25.406Z,5.4
2016-12-10T02:09:44.038Z,5.4
2016-12-10T02:10:02.672Z,5.4
2016-12-10T02:10:21.327Z,5.4
2016-12-10T02:10:39.986Z,5.4
2016-12-10T02:10:58.614Z,5.5
2016-12-10T02:11:17.237Z,5.5
2016-12-10T02:11:35.871Z,5.5
2016-12-10T02:11:54.489Z,5.4
2016-12-10T02:12:13.135Z,5.5
2016-12-10T02:12:31.758Z,5.5
2016-12-10T02:12:50.381Z,5.5
2016-12-10T02:13:09.008Z,5.5
2016-12-10T02:13:27.629Z,5.6
2016-12-10T02:13:46.250Z,5.6
2016-12-10T02:14:04.870Z,5.6
2016-12-10T02:14:23.526Z,5.5
2016-12-10T02:14:42.156Z,5.5
2016-12-10T02:15:00.780Z,5.5
2016-12-10T02:15:19.417Z,5.5
2016-12-10T02:15:38.068Z,5.5
2016-12-10T02:15:56.696Z,5.5
2016-12-10T02:16:15.324Z,5.5
2016-12-10T02:16:33.953Z,5.5
2016-12-10T02:16:52.579Z,5.5
2016-12-10T02:17:11.198Z,5.5
2016-12-10T02:17:29.819Z,5.5
2016-12-10T02:17:48.446Z,5.5
2016-12-10T02:18:07.078Z,5.5
2016-12-10T02:18:25.710Z,5.5
2016-12-10T02:18:44.337Z,5.5
2016-12-10T02:19:02.984Z,5.5
2016-12-10T02:19:21.605Z,5.5
2016-12-10T02:19:40.235Z,5.5
2016-12-10T02:19:58.861Z,5.6
2016-12-10T02:20:17.483Z,5.6
2016-12-10T02:20:36.114Z,5.7
2016-12-10T02:20:54.736Z,5.7
2016-12-10T02:21:13.388Z,5.7
2016-12-10T02:21:32.014Z,5.7
2016-12-10T02:21:50.642Z,5.8
2016-12-10T02:22:09.272Z,5.8
2016-12-10T02:22:27.918Z,5.8
2016-12-10T02:22:46.550Z,5.8
2016-12-10T02:23:05.178Z,5.8
2016-12-10T02:23:23.811Z,5.8
2016-12-10T02:23:42.431Z,5.8
2016-12-10T02:24:01.052Z,5.8
2016-12-10T02:24:19.675Z,5.9
2016-12-10T02:24:38.306Z,5.9
2016-12-10T02:24:56.938Z,6
2016-12-10T02:25:15.574Z,6
2016-12-10T02:25:34.199Z,6.1
2016-12-10T02:25:52.860Z,6.1
2016-12-10T02:26:11.491Z,6.1
2016-12-10T02:26:30.119Z,6.2
2016-12-10T02:26:48.761Z,6.2
2016-12-10T02:27:07.382Z,6.2
2016-12-10T02:27:26.001Z,6.2
2016-12-10T02:27:44.632Z,6.3
2016-12-10T02:28:03.255Z,6.3
2016-12-10T02:28:21.880Z,6.3
2016-12-10T02:28:40.506Z,6.3
2016-12-10T02:28:59.140Z,6.3
2016-12-10T02:29:17.764Z,6.4
2016-12-10T02:29:36.454Z,6.4
2016-12-10T02:29:55.082Z,6.5
2016-12-10T02:30:13.704Z,6.5
2016-12-10T02:30:32.324Z,6.5
2016-12-10T02:30:50.952Z,6.5
2016-12-10T02:31:09.594Z,6.5
2016-12-10T02:31:28.219Z,6.5
2016-12-10T02:31:46.843Z,6.6
2016-12-10T02:32:05.461Z,6.7
2016-12-10T02:32:24.092Z,6.7
2016-12-10T02:32:42.718Z,6.8
2016-12-10T02:33:01.373Z,6.8
2016-12-10T02:33:19.996Z,6.8
2016-12-10T02:33:38.621Z,6.8
2016-12-10T02:33:57.247Z,6.8
2016-12-10T02:34:15.877Z,6.8
2016-12-10T02:34:34.501Z,6.8
2016-12-10T02:34:53.144Z,6.8
2016-12-10T02:35:11.769Z,6.9
2016-12-10T02:35:30.389Z,6.9
2016-12-10T02:35:49.007Z,6.9
2016-12-10T02:36:07.636Z,6.9
2016-12-10T02:36:26.282Z,6.9
2016-12-10T02:36:44.904Z,6.9
2016-12-10T02:37:03.527Z,6.9
2016-12-10T02:37:22.148Z,6.9
2016-12-10T02:37:40.789Z,6.9
2016-12-10T02:37:59.417Z,6.8
2016-12-10T02:38:18.079Z,6.9
2016-12-10T02:38:36.700Z,6.9
2016-12-10T02:38:55.320Z,6.9
2016-12-10T02:39:13.943Z,6.9
2016-12-10T02:39:32.574Z,6.9
2016-12-10T02:39:51.200Z,6.9
2016-12-10T02:40:09.823Z,6.9
2016-12-10T02:40:28.447Z,7
2016-12-10T02:40:47.072Z,7
2016-12-10T02:41:05.704Z,7
2016-12-10T02:41:24.344Z,7
2016-12-10T02:41:43.015Z,7
2016-12-10T02:42:01.665Z,7
2016-12-10T02:42:20.292Z,6.9
2016-12-10T02:42:38.912Z,6.9
2016-12-10T02:42:57.540Z,6.9
2016-12-10T02:43:16.164Z,6.9
2016-12-10T02:43:34.791Z,6.9
2016-12-10T02:43:53.419Z,6.9
2016-12-10T02:44:12.041Z,6.9
2016-12-10T02:44:30.660Z,6.8
2016-12-10T02:44:49.284Z,6.8
2016-12-10T02:45:07.943Z,6.8
2016-12-10T02:45:26.565Z,6.8
2016-12-10T02:45:45.192Z,6.8
2016-12-10T02:46:03.816Z,6.8
2016-12-10T02:46:22.434Z,6.7
2016-12-10T02:46:41.059Z,6.7
2016-12-10T02:46:59.701Z,6.7
2016-12-10T02:47:18.326Z,6.7
2016-12-10T02:47:36.950Z,6.7
2016-12-10T02:47:55.572Z,6.7
2016-12-10T02:48:14.201Z,6.7
2016-12-10T02:48:32.863Z,6.7
2016-12-10T02:48:51.491Z,6.7
2016-12-10T02:49:10.121Z,6.7
2016-12-10T02:49:28.752Z,6.6
2016-12-10T02:49:47.368Z,6.6
2016-12-10T02:50:05.989Z,6.6
2016-12-10T02:50:24.617Z,6.6
2016-12-10T02:50:43.243Z,6.6
2016-12-10T02:51:01.867Z,6.6
2016-12-10T02:51:20.490Z,6.6
2016-12-10T02:51:39.108Z,6.6
2016-12-10T02:51:57.742Z,6.6
2016-12-10T02:52:16.403Z,6.6
2016-12-10T02:52:35.033Z,6.6
2016-12-10T02:52:53.659Z,6.6
2016-12-10T02:53:12.279Z,6.6
2016-12-10T02:53:30.900Z,6.6
2016-12-10T02:53:49.524Z,6.6
2016-12-10T02:54:08.153Z,6.6
2016-12-10T02:54:26.779Z,6.7
2016-12-10T02:54:45.405Z,6.6
2016-12-10T02:55:04.027Z,6.6
2016-12-10T02:55:22.654Z,6.6
2016-12-10T02:55:41.303Z,6.6
2016-12-10T02:55:59.934Z,6.6
2016-12-10T02:56:18.567Z,6.6
2016-12-10T02:56:37.219Z,6.5
2016-12-10T02:56:55.841Z,6.5
2016-12-10T02:57:14.480Z,6.5
2016-12-10T02:57:33.114Z,6.5
2016-12-10T02:57:51.736Z,6.5
2016-12-10T02:58:10.359Z,6.5
2016-12-10T02:58:28.983Z,6.5
2016-12-10T02:58:47.603Z,6.4
2016-12-10T02:59:06.254Z,6.4
2016-12-10T02:59:24.877Z,6.4
2016-12-10T02:59:43.502Z,6.3
2016-12-10T03:00:02.125Z,6.3
2016-12-10T03:00:20.748Z,6.3
2016-12-10T03:00:39.367Z,6.4
2016-12-10T03:00:58.040Z,6.4
2016-12-10T03:01:16.668Z,6.4
2016-12-10T03:01:35.295Z,6.4
2016-12-10T03:01:53.922Z,6.4
2016-12-10T03:02:12.540Z,6.4
2016-12-10T03:02:31.167Z,6.4
2016-12-10T03:02:49.816Z,6.4
2016-12-10T03:03:08.444Z,6.4
2016-12-10T03:03:27.071Z,6.4
2016-12-10T03:03:45.691Z,6.4
2016-12-10T03:04:04.313Z,6.4
2016-12-10T03:04:22.967Z,6.4
2016-12-10T03:04:41.588Z,6.3
2016-12-10T03:05:00.213Z,6.3
2016-12-10T03:05:18.838Z,6.3
2016-12-10T03:05:37.458Z,6.3
2016-12-10T03:05:56.083Z,6.3
2016-12-10T03:06:14.710Z,6.3
2016-12-10T03:06:33.334Z,6.3
2016-12-10T03:06:51.965Z,6.3
2016-12-10T03:07:10.592Z,6.3
2016-12-10T03:07:29.219Z,6.3
2016-12-10T03:07:47.875Z,6.3
2016-12-10T03:08:06.511Z,6.3
2016-12-10T03:08:25.139Z,6.4
2016-12-10T03:08:43.765Z,6.4
2016-12-10T03:09:02.381Z,6.4
2016-12-10T03:09:21.010Z,6.4
2016-12-10T03:09:39.635Z,6.5
2016-12-10T03:09:58.263Z,6.5
2016-12-10T03:10:16.886Z,6.4
2016-12-10T03:10:35.505Z,6.4
2016-12-10T03:10:54.141Z,6.4
2016-12-10T03:11:12.796Z,6.4
2016-12-10T03:11:31.431Z,6.5
2016-12-10T03:11:50.054Z,6.5
2016-12-10T03:12:08.702Z,6.5
2016-12-10T03:12:27.350Z,6.5
2016-12-10T03:12:45.983Z,6.5
2016-12-10T03:13:04.613Z,6.6
2016-12-10T03:13:23.259Z,6.6
2016-12-10T03:13:41.884Z,6.6
2016-12-10T03:14:00.501Z,6.6
2016-12-10T03:14:19.126Z,6.6
2016-12-10T03:14:37.781Z,6.7
2016-12-10T03:14:56.404Z,6.6
2016-12-10T03:15:15.026Z,6.6
2016-12-10T03:15:33.645Z,6.6
2016-12-10T03:15:52.271Z,6.6
2016-12-10T03:16:10.899Z,6.6
2016-12-10T03:16:29.522Z,6.6
2016-12-10T03:16:48.148Z,6.6
2016-12-10T03:17:06.773Z,6.6
2016-12-10T03:17:25.401Z,6.6
2016-12-10T03:17:44.021Z,6.6
2016-12-10T03:18:02.672Z,6.6
2016-12-10T03:18:21.301Z,6.6
2016-12-10T03:18:39.944Z,6.6
2016-12-10T03:18:58.570Z,6.6
2016-12-10T03:19:17.188Z,6.5
2016-12-10T03:19:35.810Z,6.6
2016-12-10T03:19:54.435Z,6.6
2016-12-10T03:20:13.064Z,6.6
2016-12-10T03:20:31.682Z,6.6
2016-12-10T03:20:50.304Z,6.6
2016-12-10T03:21:08.934Z,6.6
2016-12-10T03:21:27.570Z,6.6
2016-12-10T03:21:46.232Z,6.6
2016-12-10T03:22:04.852Z,6.5
2016-12-10T03:22:23.471Z,6.5
2016-12-10T03:22:42.101Z,6.6
2016-12-10T03:23:00.733Z,6.6
2016-12-10T03:23:19.359Z,6.5
2016-12-10T03:23:37.983Z,6.5
2016-12-10T03:23:56.630Z,6.6
2016-12-10T03:24:15.250Z,6.6
2016-12-10T03:24:33.874Z,6.6
2016-12-10T03:24:52.510Z,6.6
2016-12-10T03:25:11.169Z,6.6
2016-12-10T03:25:29.791Z,6.6
2016-12-10T03:25:48.408Z,6.6
2016-12-10T03:26:07.039Z,6.5
2016-12-10T03:26:25.666Z,6.5
2016-12-10T03:26:44.296Z,6.5
2016-12-10T03:27:02.943Z,6.5
2016-12-10T03:27:21.569Z,6.5
2016-12-10T03:27:40.193Z,6.5
2016-12-10T03:27:58.818Z,6.5
2016-12-10T03:28:17.442Z,6.5
2016-12-10T03:28:36.077Z,6.4
2016-12-10T03:28:54.702Z,6.4
2016-12-10T03:29:13.352Z,6.4
2016-12-10T03:29:31.976Z,6.4
2016-12-10T03:29:50.605Z,6.4
2016-12-10T03:30:09.237Z,6.3
2016-12-10T03:30:27.896Z,6.3
2016-12-10T03:30:46.514Z,6.3
2016-12-10T03:31:05.141Z,6.3
2016-12-10T03:31:23.765Z,6.3
2016-12-10T03:31:42.392Z,6.3
2016-12-10T03:32:01.023Z,6.3
2016-12-10T03:32:19.641Z,6.4
2016-12-10T03:32:38.268Z,6.3
2016-12-10T03:32:56.899Z,6.4
2016-12-10T03:33:15.524Z,6.3
2016-12-10T03:33:34.148Z,6.3
2016-12-10T03:33:52.799Z,6.3
2016-12-10T03:34:11.416Z,6.3
2016-12-10T03:34:30.072Z,6.3
2016-12-10T03:34:48.700Z,6.3
2016-12-10T03:35:07.322Z,6.3
2016-12-10T03:35:25.950Z,6.3
2016-12-10T03:35:44.572Z,6.4
2016-12-10T03:36:03.198Z,6.4
2016-12-10T03:36:21.824Z,6.4
2016-12-10T03:36:40.452Z,6.3
2016-12-10T03:36:59.080Z,6.4
2016-12-10T03:37:17.728Z,6.3
2016-12-10T03:37:36.347Z,6.3
2016-12-10T03:37:54.976Z,6.3
2016-12-10T03:38:13.601Z,6.3
2016-12-10T03:38:32.234Z,6.3
2016-12-10T03:38:50.858Z,6.3
2016-12-10T03:39:09.477Z,6.3
2016-12-10T03:39:28.095Z,6.3
2016-12-10T03:39:46.752Z,6.3
2016-12-10T03:40:05.374Z,6.3
2016-12-10T03:40:24.003Z,6.3
2016-12-10T03:40:42.656Z,6.3
2016-12-10T03:41:01.276Z,6.3
2016-12-10T03:41:19.899Z,6.3
2016-12-10T03:41:38.532Z,6.3
2016-12-10T03:41:57.162Z,6.2
2016-12-10T03:42:15.784Z,6.2
2016-12-10T03:42:34.405Z,6.2
2016-12-10T03:42:53.040Z,6.2
2016-12-10T03:43:11.669Z,6.1
2016-12-10T03:43:30.296Z,6.1
2016-12-10T03:43:48.922Z,6.1
2016-12-10T03:44:07.563Z,6.1
2016-12-10T03:44:26.189Z,6.1
2016-12-10T03:44:44.817Z,6
2016-12-10T03:45:03.467Z,6
2016-12-10T03:45:22.098Z,5.9
2016-12-10T03:45:40.720Z,5.9
2016-12-10T03:45:59.339Z,5.9
2016-12-10T03:46:17.962Z,5.9
2016-12-10T03:46:36.589Z,5.8
2016-12-10T03:46:55.217Z,5.8
2016-12-10T03:47:13.848Z,5.7
2016-12-10T03:47:32.481Z,5.7
2016-12-10T03:47:51.127Z,5.7
2016-12-10T03:48:09.757Z,5.7
2016-12-10T03:48:28.384Z,5.6
2016-12-10T03:48:47.007Z,5.6
2016-12-10T03:49:05.629Z,5.6
2016-12-10T03:49:24.247Z,5.6
2016-12-10T03:49:42.868Z,5.6
2016-12-10T03:50:01.491Z,5.6
2016-12-10T03:50:20.135Z,5.5
2016-12-10T03:50:38.764Z,5.5
2016-12-10T03:50:57.386Z,5.5
2016-12-10T03:51:16.033Z,5.5
2016-12-10T03:51:34.662Z,5.5
2016-12-10T03:51:53.286Z,5.4
2016-12-10T03:52:11.915Z,5.4
2016-12-10T03:52:30.538Z,5.4
2016-12-10T03:52:49.159Z,5.4
2016-12-10T03:53:07.795Z,5.4
2016-12-10T03:53:26.425Z,5.4
2016-12-10T03:53:45.052Z,5.4
2016-12-10T03:54:03.680Z,5.3
2016-12-10T03:54:22.307Z,5.3
2016-12-10T03:54:40.933Z,5.3
2016-12-10T03:54:59.550Z,5.3
2016-12-10T03:55:18.179Z,5.3
2016-12-10T03:55:36.823Z,5.3
2016-12-10T03:55:55.454Z,5.2
2016-12-10T03:56:14.078Z,5.2
2016-12-10T03:56:32.727Z,5.2
2016-12-10T03:56:51.345Z,5.2
2016-12-10T03:57:09.980Z,5.2
2016-12-10T03:57:28.610Z,5.2
2016-12-10T03:57:47.231Z,5.1
2016-12-10T03:58:05.879Z,5.1
2016-12-10T03:58:24.506Z,5.1
2016-12-10T03:58:43.126Z,5.1
2016-12-10T03:59:01.748Z,5.1
2016-12-10T03:59:20.383Z,5.1
2016-12-10T03:59:39.007Z,5.1
2016-12-10T03:59:57.656Z,5.1
2016-12-10T04:00:16.277Z,5.1
2016-12-10T04:00:34.903Z,5.1
2016-12-10T04:00:53.539Z,5.1
2016-12-10T04:01:12.166Z,5.1
2016-12-10T04:01:30.791Z,5.1
2016-12-10T04:01:49.415Z,5
2016-12-10T04:02:08.033Z,5
2016-12-10T04:02:26.654Z,5
2016-12-10T04:02:45.277Z,5
2016-12-10T04:03:03.903Z,5
2016-12-10T04:03:22.552Z,4.9
2016-12-10T04:03:41.174Z,4.9
2016-12-10T04:03:59.796Z,4.9
2016-12-10T04:04:18.416Z,4.9
2016-12-10T04:04:37.043Z,4.9
2016-12-10T04:04:55.672Z,4.9
2016-12-10T04:05:14.299Z,4.8
2016-12-10T04:05:32.928Z,4.9
2016-12-10T04:05:51.557Z,4.9
2016-12-10T04:06:10.187Z,4.8
2016-12-10T04:06:28.819Z,4.8
2016-12-10T04:06:47.461Z,4.8
2016-12-10T04:07:06.088Z,4.8
2016-12-10T04:07:24.709Z,4.8
2016-12-10T04:07:43.328Z,4.8
2016-12-10T04:08:01.948Z,4.8
2016-12-10T04:08:20.572Z,4.8
2016-12-10T04:08:39.198Z,4.8
2016-12-10T04:08:57.821Z,4.8
2016-12-10T04:09:16.448Z,4.8
2016-12-10T04:09:35.071Z,4.8
2016-12-10T04:09:53.692Z,4.8
2016-12-10T04:10:12.325Z,4.8
2016-12-10T04:10:30.981Z,4.8
2016-12-10T04:10:49.611Z,4.8
2016-12-10T04:11:08.232Z,4.8
2016-12-10T04:11:26.874Z,4.8
2016-12-10T04:11:45.503Z,4.7
2016-12-10T04:12:04.127Z,4.7
2016-12-10T04:12:22.754Z,4.7
2016-12-10T04:12:41.381Z,4.7
2016-12-10T04:13:00.006Z,4.7
2016-12-10T04:13:18.647Z,4.7
2016-12-10T04:13:37.310Z,4.7
2016-12-10T04:13:55.963Z,4.7
2016-12-10T04:14:14.590Z,4.7
2016-12-10T04:14:33.222Z,4.7
2016-12-10T04:14:51.844Z,4.7
2016-12-10T04:15:10.469Z,4.7
2016-12-10T04:15:29.091Z,4.7
2016-12-10T04:15:47.737Z,4.7
2016-12-10T04:16:06.365Z,4.7
2016-12-10T04:16:24.994Z,4.8
2016-12-10T04:16:43.643Z,4.7
2016-12-10T04:17:02.264Z,4.8
2016-12-10T04:17:20.914Z,4.8
2016-12-10T04:17:39.532Z,4.8
2016-12-10T04:17:58.159Z,4.8
2016-12-10T04:18:16.785Z,4.8
2016-12-10T04:18:35.409Z,4.8